createdAt,value
2023-01-26T00:04:27.314Z,34.30
2023-01-26T00:09:29.791Z,30.50
2023-01-26T00:14:49.835Z,19.00
2023-01-26T00:19:57.173Z,24.70
2023-01-26T00:24:58.919Z,28.70
2023-01-26T00:30:00.723Z,20.90
2023-01-26T00:35:03.245Z,30.30
2023-01-26T00:40:05.691Z,27.40
2023-01-26T00:45:08.045Z,27.40
2023-01-26T00:50:11.267Z,27.90
2023-01-26T00:55:13.413Z,29.60
2023-01-26T01:00:17.353Z,28.10
2023-01-26T01:05:19.099Z,28.10
2023-01-26T01:10:22.235Z,33.60
2023-01-26T01:15:25.104Z,29.50
2023-01-26T01:20:26.790Z,33.20
2023-01-26T01:25:29.270Z,36.60
2023-01-26T01:30:33.181Z,31.30
2023-01-26T01:35:35.851Z,30.90
2023-01-26T01:40:43.557Z,28.80
2023-01-26T01:45:47.577Z,40.70
2023-01-26T01:50:52.216Z,27.70
2023-01-26T02:00:59.162Z,28.10
2023-01-26T02:06:13.492Z,25.60
2023-01-26T02:11:19.398Z,21.90
2023-01-26T02:16:21.260Z,17.00
2023-01-26T02:21:24.321Z,43.80
2023-01-26T02:26:28.819Z,36.10
2023-01-26T02:31:31.400Z,36.30
2023-01-26T02:36:34.469Z,34.20
2023-01-26T02:41:55.125Z,35.40
2023-01-26T02:46:57.589Z,20.70
2023-01-26T02:51:59.644Z,30.20
2023-01-26T02:57:02.023Z,46.00
2023-01-26T03:02:04.124Z,33.50
2023-01-26T03:07:05.887Z,41.50
2023-01-26T03:12:07.704Z,35.10
2023-01-26T03:17:09.490Z,38.90
2023-01-26T03:22:30.518Z,35.50
2023-01-26T03:27:43.826Z,45.00
2023-01-26T03:32:46.582Z,39.30
2023-01-26T03:37:54.664Z,44.40
2023-01-26T03:43:30.173Z,34.60
2023-01-26T03:48:50.742Z,34.60
2023-01-26T03:54:11.576Z,44.80
2023-01-26T03:59:15.468Z,44.70
2023-01-26T04:04:37.308Z,32.80
2023-01-26T04:09:41.920Z,38.10
2023-01-26T04:15:03.030Z,19.80
2023-01-26T04:20:25.242Z,28.80
2023-01-26T04:25:27.320Z,32.90
2023-01-26T04:35:34.084Z,33.70
2023-01-26T04:40:35.990Z,35.90
2023-01-26T04:45:37.785Z,48.20
2023-01-26T04:50:39.627Z,56.90
2023-01-26T04:55:42.054Z,52.70
2023-01-26T05:00:45.618Z,45.30
2023-01-26T05:05:52.853Z,35.30
2023-01-26T05:10:56.390Z,26.80
2023-01-26T05:16:05.546Z,45.70
2023-01-26T05:21:28.290Z,33.70
2023-01-26T05:26:30.869Z,37.70
2023-01-26T05:31:38.896Z,65.30
2023-01-26T05:36:41.370Z,55.80
2023-01-26T05:41:43.605Z,35.40
2023-01-26T05:47:09.334Z,34.20
2023-01-26T05:52:16.916Z,64.30
2023-01-26T05:57:19.140Z,42.00
2023-01-26T06:02:28.024Z,49.90
2023-01-26T06:07:30.512Z,25.80
2023-01-26T06:12:52.533Z,43.20
2023-01-26T06:18:12.589Z,53.90
2023-01-26T06:28:20.796Z,23.70
2023-01-26T06:33:22.855Z,45.50
2023-01-26T06:38:25.787Z,50.10
2023-01-26T06:43:30.654Z,57.80
2023-01-26T06:48:34.889Z,53.70
2023-01-26T06:53:42.492Z,81.10
2023-01-26T06:59:07.587Z,58.10
2023-01-26T07:04:27.567Z,41.40
2023-01-26T07:09:30.166Z,66.80
2023-01-26T07:14:32.833Z,39.70
2023-01-26T07:19:34.553Z,47.00
2023-01-26T07:24:36.277Z,52.20
2023-01-26T07:29:37.954Z,50.80
2023-01-26T07:34:39.639Z,40.00
2023-01-26T07:39:41.415Z,39.20
2023-01-26T07:44:43.155Z,31.40
2023-01-26T07:49:45.206Z,53.60
2023-01-26T07:54:46.871Z,40.50
2023-01-26T07:59:48.550Z,41.30
2023-01-26T08:04:53.948Z,34.50
2023-01-26T08:09:55.858Z,44.30
2023-01-26T08:14:57.747Z,51.30
2023-01-26T08:19:59.643Z,42.60
2023-01-26T08:25:01.345Z,36.80
2023-01-26T08:30:03.253Z,35.10
2023-01-26T08:35:05.702Z,31.50
2023-01-26T08:40:09.128Z,40.60
2023-01-26T08:45:11.536Z,31.60
2023-01-26T08:50:13.602Z,31.80
2023-01-26T08:55:15.693Z,32.80
2023-01-26T09:00:18.042Z,35.60
2023-01-26T09:05:19.772Z,35.40
2023-01-26T09:10:21.473Z,34.50
2023-01-26T09:15:23.677Z,38.30
2023-01-26T09:20:25.406Z,44.50
2023-01-26T09:25:27.226Z,57.40
2023-01-26T09:30:29.066Z,43.30
2023-01-26T09:35:31.794Z,46.30
2023-01-26T09:41:01.543Z,31.40
2023-01-26T09:51:23.471Z,89.90
2023-01-26T09:56:29.108Z,85.30
2023-01-26T10:01:40.766Z,48.10
2023-01-26T10:06:44.009Z,38.30
2023-01-26T10:12:28.323Z,56.40
2023-01-26T10:17:39.909Z,39.20
2023-01-26T10:22:48.445Z,36.40
2023-01-26T10:27:51.220Z,32.30
2023-01-26T10:32:52.994Z,53.00
2023-01-26T10:37:56.207Z,69.50
2023-01-26T10:43:00.748Z,54.50
2023-01-26T10:48:25.215Z,43.60
2023-01-26T10:53:29.847Z,53.60
2023-01-26T11:04:16.774Z,41.30
2023-01-26T11:09:33.838Z,108.90
2023-01-26T11:14:38.514Z,49.90
2023-01-26T11:20:01.692Z,40.70
2023-01-26T11:25:17.594Z,38.30
2023-01-26T11:30:31.043Z,38.60
2023-01-26T11:35:51.831Z,41.80
2023-01-26T11:40:59.355Z,42.60
2023-01-26T11:46:25.948Z,42.90
2023-01-26T11:51:56.954Z,45.80
2023-01-26T11:57:36.024Z,46.60
2023-01-26T12:02:38.650Z,39.70
2023-01-26T12:07:56.263Z,44.60
2023-01-26T12:13:13.789Z,49.10
2023-01-26T12:18:27.931Z,34.60
2023-01-26T12:23:50.655Z,36.20
2023-01-26T12:29:01.876Z,33.90
2023-01-26T12:34:03.572Z,43.60
2023-01-26T12:39:39.358Z,40.10
2023-01-26T12:44:50.504Z,30.20
2023-01-26T12:50:04.819Z,50.50
2023-01-26T12:55:18.295Z,30.30
2023-01-26T13:00:25.622Z,38.60
2023-01-26T13:05:31.645Z,60.70
2023-01-26T13:10:49.963Z,65.40
2023-01-26T13:16:17.793Z,50.60
2023-01-26T13:21:38.131Z,63.00
2023-01-26T13:26:51.576Z,43.90
2023-01-26T13:31:55.131Z,44.90
2023-01-26T13:37:08.918Z,41.50
2023-01-26T13:42:27.586Z,39.70
2023-01-26T13:47:37.902Z,48.70
2023-01-26T13:52:42.459Z,45.80
2023-01-26T13:57:44.344Z,46.80
2023-01-26T14:02:49.863Z,50.70
2023-01-26T14:07:52.118Z,45.60
2023-01-26T14:12:58.888Z,30.20
2023-01-26T14:18:05.159Z,60.30
2023-01-26T14:23:06.911Z,78.30
2023-01-26T14:28:15.939Z,46.70
2023-01-26T14:33:18.697Z,47.70
2023-01-26T14:38:21.163Z,64.90
2023-01-26T14:43:23.860Z,133.00
2023-01-26T14:48:35.076Z,38.10
2023-01-26T14:53:37.299Z,38.90
2023-01-26T14:58:39.549Z,36.50
2023-01-26T15:03:41.340Z,49.80
2023-01-26T15:08:53.897Z,66.30
2023-01-26T15:13:56.322Z,40.90
2023-01-26T15:19:04.898Z,39.70
2023-01-26T15:24:13.296Z,34.10
2023-01-26T15:29:25.116Z,36.70
2023-01-26T15:34:31.632Z,38.60
2023-01-26T15:39:33.668Z,24.60
2023-01-26T15:44:35.355Z,34.40
2023-01-26T15:49:37.124Z,31.00
2023-01-26T15:54:38.886Z,39.10
2023-01-26T15:59:40.858Z,30.30
2023-01-26T16:04:43.564Z,38.90
2023-01-26T16:09:45.414Z,30.00
2023-01-26T16:14:47.146Z,31.00
2023-01-26T16:19:48.851Z,57.90
2023-01-26T16:24:50.515Z,41.50
2023-01-26T16:29:52.201Z,35.70
2023-01-26T16:34:53.999Z,52.60
2023-01-26T16:39:55.715Z,44.00
2023-01-26T16:44:57.749Z,38.20
2023-01-26T16:49:59.827Z,43.20
2023-01-26T16:55:01.555Z,42.80
2023-01-26T17:00:04.492Z,47.50
2023-01-26T17:05:06.783Z,37.80
2023-01-26T17:10:10.068Z,24.30
2023-01-26T17:15:12.551Z,45.80
2023-01-26T17:20:19.355Z,50.20
2023-01-26T17:25:21.484Z,64.30
2023-01-26T17:30:23.740Z,56.80
2023-01-26T17:35:25.576Z,54.00
2023-01-26T17:40:27.516Z,60.60
2023-01-26T17:45:29.357Z,44.10
2023-01-26T17:50:31.144Z,31.20
2023-01-26T17:55:35.917Z,54.60
2023-01-26T18:05:40.102Z,47.10
2023-01-26T18:10:42.063Z,45.70
2023-01-26T18:15:45.565Z,40.70
2023-01-26T18:20:47.662Z,22.10
2023-01-26T18:26:08.266Z,40.30
2023-01-26T18:31:31.820Z,45.70
2023-01-26T18:36:33.667Z,45.60
2023-01-26T18:41:35.507Z,46.90
2023-01-26T18:46:37.888Z,40.20
2023-01-26T18:51:39.694Z,62.60
2023-01-26T18:56:41.793Z,59.10
2023-01-26T19:01:43.853Z,56.20
2023-01-26T19:06:46.876Z,51.80
2023-01-26T19:11:49.062Z,46.20
2023-01-26T19:16:51.114Z,43.30
2023-01-26T19:21:53.305Z,69.80
2023-01-26T19:26:55.015Z,72.10
2023-01-26T19:31:56.797Z,102.20
2023-01-26T19:36:58.782Z,83.60
2023-01-26T19:42:00.853Z,72.70
2023-01-26T19:47:02.734Z,71.20
2023-01-26T19:52:04.721Z,75.70
2023-01-26T19:57:06.609Z,66.30
2023-01-26T20:02:10.274Z,54.20
2023-01-26T20:07:12.197Z,128.70
2023-01-26T20:12:14.177Z,112.90
2023-01-26T20:17:16.877Z,159.40
2023-01-26T20:22:18.856Z,113.20
2023-01-26T20:27:20.844Z,73.10
2023-01-26T20:32:22.688Z,68.40
2023-01-26T20:37:24.605Z,71.20
2023-01-26T20:42:26.597Z,72.70
2023-01-26T20:47:34.088Z,68.00
2023-01-26T20:52:36.997Z,57.90
2023-01-26T20:57:39.096Z,41.90
2023-01-26T21:02:41.066Z,48.50
2023-01-26T21:07:42.778Z,61.10
2023-01-26T21:12:45.747Z,78.80
2023-01-26T21:17:47.473Z,60.30
2023-01-26T21:22:49.381Z,85.60
2023-01-26T21:27:52.713Z,79.20
2023-01-26T21:32:54.797Z,104.70
2023-01-26T21:37:56.778Z,86.50
2023-01-26T21:42:58.690Z,62.20
2023-01-26T21:48:19.274Z,58.60
2023-01-26T21:53:20.959Z,101.50
2023-01-26T21:58:41.555Z,122.20
2023-01-26T22:03:43.305Z,99.90
2023-01-26T22:08:45.399Z,98.10
2023-01-26T22:13:55.405Z,80.70
2023-01-26T22:18:57.688Z,70.10
2023-01-26T22:24:00.017Z,58.20
2023-01-26T22:29:03.575Z,92.30
2023-01-26T22:34:05.478Z,87.50
2023-01-26T22:39:07.985Z,58.40
2023-01-26T22:44:09.948Z,62.40
2023-01-26T22:49:11.743Z,54.10
2023-01-26T22:54:13.521Z,71.90
2023-01-26T22:59:15.341Z,72.50
2023-01-26T23:04:17.346Z,110.70
2023-01-26T23:09:19.287Z,73.00
2023-01-26T23:14:36.688Z,72.70
2023-01-26T23:19:38.466Z,72.50
2023-01-26T23:24:40.259Z,53.40
2023-01-26T23:29:42.196Z,50.80
2023-01-26T23:34:43.911Z,29.60
2023-01-26T23:39:45.802Z,63.20
2023-01-26T23:44:47.646Z,56.90
2023-01-26T23:49:49.582Z,68.20
2023-01-26T23:54:51.425Z,60.70
2023-01-26T23:59:53.148Z,57.50
